createdAt,value
2019-02-15T00:00:52.539Z,7.90
2019-02-15T00:03:24.292Z,7.50
2019-02-15T00:05:55.697Z,8.50
2019-02-15T00:08:27.156Z,8.20
2019-02-15T00:10:58.993Z,8.50
2019-02-15T00:13:31.018Z,8.93
2019-02-15T00:16:02.428Z,8.30
2019-02-15T00:18:42.989Z,8.77
2019-02-15T00:21:26.304Z,8.43
2019-02-15T00:23:57.805Z,9.80
2019-02-15T00:26:29.375Z,8.67
2019-02-15T00:29:02.662Z,8.50
2019-02-15T00:31:34.197Z,8.50
2019-02-15T00:34:05.975Z,8.03
2019-02-15T00:36:37.489Z,8.07
2019-02-15T00:39:09.751Z,8.67
2019-02-15T00:41:41.564Z,9.87
2019-02-15T00:44:15.791Z,9.90
2019-02-15T00:47:10.733Z,10.23
2019-02-15T00:50:08.929Z,10.43
2019-02-15T00:52:59.964Z,10.37
2019-02-15T00:55:37.529Z,10.13
2019-02-15T00:58:40.743Z,9.10
2019-02-15T01:01:30.496Z,9.53
2019-02-15T01:04:21.426Z,9.07
2019-02-15T01:07:21.160Z,8.83
2019-02-15T01:10:14.426Z,8.70
2019-02-15T01:12:50.708Z,8.53
2019-02-15T01:15:22.175Z,8.90
2019-02-15T01:17:53.680Z,8.90
2019-02-15T01:20:25.310Z,9.10
2019-02-15T01:22:56.851Z,9.00
2019-02-15T01:25:31.264Z,9.10
2019-02-15T01:28:10.730Z,8.73
2019-02-15T01:31:00.077Z,8.40
2019-02-15T01:33:53.625Z,8.47
2019-02-15T01:36:54.024Z,9.17
2019-02-15T01:39:36.589Z,8.73
2019-02-15T01:42:25.228Z,8.87
2019-02-15T01:45:11.117Z,8.90
2019-02-15T01:47:46.250Z,8.23
2019-02-15T01:50:19.152Z,8.00
2019-02-15T01:52:50.634Z,8.63
2019-02-15T01:55:22.105Z,8.00
2019-02-15T01:57:56.150Z,8.30
2019-02-15T02:00:31.797Z,9.10
2019-02-15T02:03:03.111Z,8.87
2019-02-15T02:05:34.438Z,8.90
2019-02-15T02:08:10.143Z,9.00
2019-02-15T02:10:41.810Z,9.60
2019-02-15T02:13:13.113Z,10.40
2019-02-15T02:15:45.658Z,10.53
2019-02-15T02:18:17.016Z,11.83
2019-02-15T02:20:50.271Z,11.60
2019-02-15T02:23:22.021Z,10.37
2019-02-15T02:25:53.424Z,11.47
2019-02-15T02:28:25.250Z,11.13
2019-02-15T02:30:57.297Z,11.77
2019-02-15T02:33:28.705Z,11.13
2019-02-15T02:36:00.263Z,11.23
2019-02-15T02:38:32.262Z,12.00
2019-02-15T02:41:04.012Z,11.30
2019-02-15T02:43:35.445Z,11.17
2019-02-15T02:46:07.071Z,12.33
2019-02-15T02:48:38.585Z,12.40
2019-02-15T02:51:10.639Z,12.70
2019-02-15T02:53:42.605Z,11.80
2019-02-15T02:56:14.327Z,12.50
2019-02-15T02:58:45.855Z,11.63
2019-02-15T03:01:17.275Z,10.07
2019-02-15T03:03:49.019Z,10.40
2019-02-15T03:06:20.571Z,10.33
2019-02-15T03:08:52.591Z,10.67
2019-02-15T03:11:24.341Z,10.63
2019-02-15T03:13:56.291Z,10.20
2019-02-15T03:16:28.145Z,9.63
2019-02-15T03:18:59.844Z,10.20
2019-02-15T03:21:33.321Z,9.90
2019-02-15T03:24:04.717Z,9.93
2019-02-15T03:26:37.152Z,9.70
2019-02-15T03:29:09.852Z,9.60
2019-02-15T03:31:42.071Z,9.23
2019-02-15T03:34:14.035Z,8.90
2019-02-15T03:37:07.399Z,9.30
2019-02-15T03:39:48.062Z,8.90
2019-02-15T03:42:21.484Z,8.07
2019-02-15T03:44:53.311Z,8.10
2019-02-15T03:47:27.421Z,8.20
2019-02-15T03:49:58.980Z,8.30
2019-02-15T03:52:32.288Z,9.07
2019-02-15T03:55:05.416Z,8.00
2019-02-15T03:57:38.840Z,7.47
2019-02-15T04:00:11.850Z,8.33
2019-02-15T04:02:44.163Z,7.27
2019-02-15T04:05:16.106Z,7.70
2019-02-15T04:07:49.026Z,8.23
2019-02-15T04:10:20.747Z,7.87
2019-02-15T04:12:52.770Z,7.97
2019-02-15T04:15:24.651Z,7.53
2019-02-15T04:17:56.568Z,7.80
2019-02-15T04:20:27.984Z,8.80
2019-02-15T04:22:59.555Z,8.23
2019-02-15T04:25:31.093Z,8.03
2019-02-15T04:28:02.866Z,8.07
2019-02-15T04:30:34.638Z,7.93
2019-02-15T04:33:06.193Z,8.03
2019-02-15T04:35:37.927Z,7.50
2019-02-15T04:38:09.949Z,7.27
2019-02-15T04:40:41.544Z,7.23
2019-02-15T04:43:12.950Z,7.50
2019-02-15T04:45:44.831Z,7.27
2019-02-15T04:48:16.539Z,6.83
2019-02-15T04:50:47.951Z,7.40
2019-02-15T04:53:19.564Z,7.47
2019-02-15T04:55:51.506Z,6.30
2019-02-15T04:58:23.339Z,6.50
2019-02-15T05:00:56.904Z,6.43
2019-02-15T05:03:28.401Z,7.27
2019-02-15T05:05:59.905Z,6.70
2019-02-15T05:08:31.903Z,6.70
2019-02-15T05:11:04.101Z,6.47
2019-02-15T05:13:36.759Z,6.37
2019-02-15T05:16:08.107Z,6.20
2019-02-15T05:18:39.661Z,6.73
2019-02-15T05:21:12.724Z,6.60
2019-02-15T05:23:44.338Z,7.13
2019-02-15T05:26:17.511Z,6.83
2019-02-15T05:28:49.041Z,6.30
2019-02-15T05:31:21.004Z,7.07
2019-02-15T05:33:52.427Z,6.80
2019-02-15T05:36:27.359Z,6.77
2019-02-15T05:38:59.199Z,6.73
2019-02-15T05:41:30.684Z,6.53
2019-02-15T05:44:04.793Z,6.77
2019-02-15T05:46:37.136Z,6.40
2019-02-15T05:49:09.894Z,6.60
2019-02-15T05:51:42.402Z,6.50
2019-02-15T05:54:13.778Z,7.03
2019-02-15T05:56:45.138Z,6.93
2019-02-15T05:59:17.531Z,6.80
2019-02-15T06:01:48.934Z,7.00
2019-02-15T06:04:20.347Z,6.87
2019-02-15T06:06:51.754Z,6.73
2019-02-15T06:09:23.295Z,7.27
2019-02-15T06:11:55.070Z,7.17
2019-02-15T06:14:26.996Z,6.63
2019-02-15T06:16:58.414Z,7.00
2019-02-15T06:19:29.899Z,6.87
2019-02-15T06:22:01.929Z,6.77
2019-02-15T06:24:35.239Z,6.70
2019-02-15T06:27:06.709Z,7.17
2019-02-15T06:29:38.360Z,7.00
2019-02-15T06:32:10.142Z,8.03
2019-02-15T06:34:42.104Z,7.23
2019-02-15T06:37:13.759Z,7.13
2019-02-15T06:39:45.536Z,7.23
2019-02-15T06:42:17.431Z,7.13
2019-02-15T06:44:49.902Z,7.20
2019-02-15T06:47:21.471Z,8.20
2019-02-15T06:49:53.317Z,7.43
2019-02-15T06:52:24.822Z,7.70
2019-02-15T06:54:56.602Z,7.20
2019-02-15T06:57:28.105Z,6.60
2019-02-15T07:00:33.950Z,7.77
2019-02-15T07:03:20.781Z,7.87
2019-02-15T07:05:52.168Z,8.10
2019-02-15T07:08:23.821Z,7.87
2019-02-15T07:10:55.407Z,7.50
2019-02-15T07:13:26.952Z,7.73
2019-02-15T07:16:00.075Z,8.03
2019-02-15T07:18:31.733Z,7.90
2019-02-15T07:21:03.723Z,7.37
2019-02-15T07:23:36.423Z,8.20
2019-02-15T07:26:08.536Z,7.77
2019-02-15T07:28:40.407Z,7.83
2019-02-15T07:31:13.411Z,7.97
2019-02-15T07:33:44.889Z,8.13
2019-02-15T07:36:16.439Z,7.33
2019-02-15T07:38:48.167Z,7.73
2019-02-15T07:41:19.884Z,7.67
2019-02-15T07:43:51.669Z,7.57
2019-02-15T07:46:23.815Z,7.83
2019-02-15T07:48:55.627Z,8.37
2019-02-15T07:51:27.303Z,7.87
2019-02-15T07:53:58.744Z,7.73
2019-02-15T07:56:30.163Z,7.70
2019-02-15T07:59:04.528Z,8.07
2019-02-15T08:01:36.886Z,8.57
2019-02-15T08:04:09.547Z,8.17
2019-02-15T08:06:41.251Z,8.47
2019-02-15T08:09:12.827Z,8.63
2019-02-15T08:11:44.216Z,8.40
2019-02-15T08:14:18.506Z,7.60
2019-02-15T08:16:50.201Z,8.10
2019-02-15T08:19:22.512Z,7.53
2019-02-15T08:21:54.414Z,7.60
2019-02-15T08:24:26.126Z,8.27
2019-02-15T08:27:00.250Z,7.77
2019-02-15T08:29:32.223Z,8.03
2019-02-15T08:32:05.367Z,8.13
2019-02-15T08:34:37.100Z,8.47
2019-02-15T08:37:10.292Z,7.83
2019-02-15T08:39:42.585Z,7.63
2019-02-15T08:42:14.343Z,7.57
2019-02-15T08:44:46.004Z,7.90
2019-02-15T08:47:19.178Z,7.53
2019-02-15T08:49:50.700Z,8.03
2019-02-15T08:52:22.335Z,7.10
2019-02-15T08:54:55.053Z,7.33
2019-02-15T08:57:28.046Z,7.40
2019-02-15T08:59:59.543Z,7.60
2019-02-15T09:02:31.331Z,7.77
2019-02-15T09:05:02.977Z,7.33
2019-02-15T09:07:34.579Z,7.70
2019-02-15T09:10:07.725Z,7.70
2019-02-15T09:12:39.131Z,7.93
2019-02-15T09:15:13.776Z,7.50
2019-02-15T09:17:45.715Z,7.80
2019-02-15T09:20:17.300Z,7.70
2019-02-15T09:22:48.711Z,7.93
2019-02-15T09:25:20.444Z,7.90
2019-02-15T09:28:10.827Z,8.13
2019-02-15T09:30:44.778Z,8.07
2019-02-15T09:33:16.339Z,8.13
2019-02-15T09:35:48.076Z,7.83
2019-02-15T09:38:20.090Z,6.83
2019-02-15T09:40:51.880Z,8.00
2019-02-15T09:43:23.930Z,7.53
2019-02-15T09:45:55.345Z,7.57
2019-02-15T09:48:28.483Z,7.83
2019-02-15T09:50:59.965Z,7.00
2019-02-15T09:53:31.417Z,6.83
2019-02-15T09:56:03.819Z,7.57
2019-02-15T09:58:35.291Z,7.13
2019-02-15T10:01:06.799Z,6.60
2019-02-15T10:03:38.770Z,6.87
2019-02-15T10:06:12.193Z,6.27
2019-02-15T10:08:43.648Z,7.10
2019-02-15T10:11:15.438Z,6.60
2019-02-15T10:13:46.859Z,6.43
2019-02-15T10:16:18.593Z,7.07
2019-02-15T10:18:50.303Z,6.50
2019-02-15T10:21:22.133Z,6.80
2019-02-15T10:23:53.622Z,6.53
2019-02-15T10:26:26.355Z,6.10
2019-02-15T10:28:58.545Z,6.30
2019-02-15T10:31:30.333Z,5.47
2019-02-15T10:34:01.860Z,5.47
2019-02-15T10:36:33.146Z,5.00
2019-02-15T10:39:05.947Z,5.77
2019-02-15T10:41:37.748Z,5.80
2019-02-15T10:44:09.243Z,5.00
2019-02-15T10:46:40.707Z,5.67
2019-02-15T10:49:12.294Z,5.80
2019-02-15T10:51:44.043Z,5.87
2019-02-15T10:54:15.463Z,5.30
2019-02-15T10:56:49.113Z,5.43
2019-02-15T10:59:20.595Z,6.10
2019-02-15T11:01:53.654Z,6.30
2019-02-15T11:04:25.695Z,5.73
2019-02-15T11:06:57.146Z,5.90
2019-02-15T11:09:28.882Z,5.87
2019-02-15T11:12:00.386Z,5.80
2019-02-15T11:14:32.956Z,5.70
2019-02-15T11:17:05.150Z,5.97
2019-02-15T11:19:36.768Z,6.17
2019-02-15T11:22:10.384Z,5.93
2019-02-15T11:24:42.057Z,5.73
2019-02-15T11:27:13.778Z,5.87
2019-02-15T11:29:45.658Z,5.73
2019-02-15T11:32:17.625Z,6.47
2019-02-15T11:34:52.612Z,5.70
2019-02-15T11:37:24.112Z,5.70
2019-02-15T11:39:55.683Z,5.87
2019-02-15T11:42:27.680Z,6.13
2019-02-15T11:44:59.112Z,5.93
2019-02-15T11:47:33.542Z,5.83
2019-02-15T11:50:05.668Z,6.13
2019-02-15T11:52:37.222Z,6.30
2019-02-15T11:55:09.139Z,5.50
2019-02-15T11:57:40.949Z,6.00
2019-02-15T12:00:17.822Z,5.80
2019-02-15T12:02:50.332Z,6.37
2019-02-15T12:05:22.349Z,5.83
2019-02-15T12:07:53.915Z,6.23
2019-02-15T12:10:26.805Z,6.00
2019-02-15T12:13:01.264Z,5.83
2019-02-15T12:15:32.775Z,6.00
2019-02-15T12:18:05.380Z,6.30
2019-02-15T12:20:36.901Z,6.50
2019-02-15T12:23:08.623Z,6.33
2019-02-15T12:25:40.264Z,6.10
2019-02-15T12:28:13.019Z,5.87
2019-02-15T12:30:44.977Z,6.07
2019-02-15T12:33:16.665Z,6.33
2019-02-15T12:35:48.490Z,6.30
2019-02-15T12:38:20.496Z,5.90
2019-02-15T12:40:52.194Z,5.87
2019-02-15T12:43:24.833Z,6.53
2019-02-15T12:45:56.167Z,6.00
2019-02-15T12:48:28.007Z,5.70
2019-02-15T12:50:59.427Z,5.93
2019-02-15T12:53:31.715Z,6.10
2019-02-15T12:56:05.112Z,6.40
2019-02-15T12:58:37.341Z,6.50
2019-02-15T13:01:09.255Z,6.07
2019-02-15T13:03:40.810Z,5.73
2019-02-15T13:06:15.532Z,6.17
2019-02-15T13:08:50.923Z,6.30
2019-02-15T13:11:22.879Z,5.87
2019-02-15T13:13:54.612Z,5.93
2019-02-15T13:16:27.163Z,6.10
2019-02-15T13:18:59.676Z,6.77
2019-02-15T13:21:31.872Z,6.70
2019-02-15T13:24:03.625Z,6.47
2019-02-15T13:26:37.024Z,6.13
2019-02-15T13:29:08.904Z,6.53
2019-02-15T13:31:42.059Z,6.60
2019-02-15T13:34:13.962Z,9.10
2019-02-15T13:36:45.871Z,9.47
2019-02-15T13:39:17.501Z,7.23
2019-02-15T13:41:49.210Z,7.00
2019-02-15T13:44:20.725Z,7.40
2019-02-15T13:46:52.959Z,6.63
2019-02-15T13:49:24.848Z,6.70
2019-02-15T13:51:56.369Z,6.27
2019-02-15T13:54:28.360Z,6.40
2019-02-15T13:57:00.224Z,6.10
2019-02-15T13:59:32.110Z,6.50
2019-02-15T14:02:05.299Z,5.97
2019-02-15T14:04:38.648Z,7.03
2019-02-15T14:07:20.444Z,5.90
2019-02-15T14:09:52.032Z,6.27
2019-02-15T14:12:25.468Z,6.40
2019-02-15T14:14:58.032Z,6.33
2019-02-15T14:17:29.790Z,6.53
2019-02-15T14:20:02.414Z,6.70
2019-02-15T14:22:35.252Z,6.80
2019-02-15T14:25:08.226Z,6.97
2019-02-15T14:27:39.691Z,7.00
2019-02-15T14:30:12.027Z,7.30
2019-02-15T14:32:45.053Z,7.10
2019-02-15T14:35:17.150Z,9.00
2019-02-15T14:37:49.882Z,7.10
2019-02-15T14:40:21.574Z,7.83
2019-02-15T14:42:54.924Z,8.57
2019-02-15T14:45:26.450Z,7.03
2019-02-15T14:47:57.874Z,7.13
2019-02-15T14:50:29.964Z,6.93
2019-02-15T14:53:02.463Z,8.50
2019-02-15T14:55:34.179Z,8.13
2019-02-15T14:58:05.695Z,7.50
2019-02-15T15:00:38.480Z,9.53
2019-02-15T15:03:10.145Z,8.67
2019-02-15T15:05:41.625Z,7.13
2019-02-15T15:08:16.585Z,9.93
2019-02-15T15:10:48.265Z,12.43
2019-02-15T15:13:20.015Z,22.63
2019-02-15T15:15:51.677Z,13.97
2019-02-15T15:18:23.407Z,7.93
2019-02-15T15:20:55.455Z,8.57
2019-02-15T15:23:27.015Z,7.40
2019-02-15T15:25:58.774Z,7.47
2019-02-15T15:28:30.895Z,6.93
2019-02-15T15:31:03.481Z,7.73
2019-02-15T15:33:36.070Z,7.87
2019-02-15T15:36:10.715Z,6.70
2019-02-15T15:38:44.122Z,7.03
2019-02-15T15:41:17.468Z,7.10
2019-02-15T15:43:50.608Z,7.30
2019-02-15T15:46:22.103Z,6.57
2019-02-15T15:48:55.073Z,6.97
2019-02-15T15:51:27.625Z,6.70
2019-02-15T15:54:00.036Z,6.37
2019-02-15T15:56:39.275Z,5.53
2019-02-15T15:59:12.612Z,5.67
2019-02-15T16:01:44.266Z,5.93
2019-02-15T16:04:17.249Z,5.80
2019-02-15T16:06:49.127Z,5.80
2019-02-15T16:09:22.480Z,6.13
2019-02-15T16:11:54.139Z,5.83
2019-02-15T16:14:25.710Z,6.27
2019-02-15T16:16:57.279Z,5.87
2019-02-15T16:19:28.780Z,5.60
2019-02-15T16:22:00.423Z,5.40
2019-02-15T16:24:32.126Z,5.73
2019-02-15T16:27:03.578Z,5.30
2019-02-15T16:29:35.078Z,5.57
2019-02-15T16:32:06.704Z,5.33
2019-02-15T16:34:39.938Z,5.27
2019-02-15T16:37:11.470Z,5.43
2019-02-15T16:39:44.884Z,5.33
2019-02-15T16:42:16.466Z,5.70
2019-02-15T16:44:48.088Z,5.63
2019-02-15T16:47:19.968Z,5.77
2019-02-15T16:49:51.829Z,5.67
2019-02-15T16:52:23.379Z,6.00
2019-02-15T16:54:54.986Z,7.57
2019-02-15T16:57:26.537Z,7.30
2019-02-15T16:59:58.375Z,6.40
2019-02-15T17:02:30.107Z,6.83
2019-02-15T17:05:03.806Z,7.00
2019-02-15T17:07:35.874Z,6.70
2019-02-15T17:10:07.953Z,5.83
2019-02-15T17:12:40.039Z,5.73
2019-02-15T17:15:12.254Z,6.00
2019-02-15T17:17:44.034Z,5.77
2019-02-15T17:20:17.218Z,5.53
2019-02-15T17:22:49.135Z,5.73
2019-02-15T17:25:20.934Z,5.30
2019-02-15T17:27:52.544Z,5.80
2019-02-15T17:30:24.180Z,6.07
2019-02-15T17:32:57.421Z,6.10
2019-02-15T17:35:29.361Z,5.93
2019-02-15T17:38:01.465Z,6.43
2019-02-15T17:40:33.118Z,6.97
2019-02-15T17:43:04.904Z,7.07
2019-02-15T17:45:37.193Z,7.00
2019-02-15T17:48:09.565Z,6.90
2019-02-15T17:50:41.511Z,6.67
2019-02-15T17:53:13.291Z,6.33
2019-02-15T17:55:44.877Z,6.07
2019-02-15T17:58:16.280Z,6.37
2019-02-15T18:00:47.639Z,6.23
2019-02-15T18:03:19.694Z,6.23
2019-02-15T18:05:51.634Z,5.93
2019-02-15T18:08:23.604Z,6.73
2019-02-15T18:10:55.386Z,7.00
2019-02-15T18:13:27.571Z,6.07
2019-02-15T18:15:59.350Z,6.77
2019-02-15T18:18:31.170Z,7.10
2019-02-15T18:21:03.060Z,6.77
2019-02-15T18:23:34.911Z,7.53
2019-02-15T18:26:06.632Z,6.80
2019-02-15T18:28:38.235Z,7.10
2019-02-15T18:31:10.214Z,6.63
2019-02-15T18:33:41.903Z,6.30
2019-02-15T18:36:13.927Z,6.43
2019-02-15T18:38:45.469Z,7.33
2019-02-15T18:41:18.450Z,8.50
2019-02-15T18:43:50.490Z,7.87
2019-02-15T18:46:22.044Z,7.40
2019-02-15T18:48:53.753Z,7.77
2019-02-15T18:51:26.625Z,6.30
2019-02-15T18:54:01.828Z,6.37
2019-02-15T18:56:33.254Z,6.30
2019-02-15T18:59:04.835Z,5.33
2019-02-15T19:01:36.505Z,6.27
2019-02-15T19:04:08.438Z,5.97
2019-02-15T19:06:39.943Z,5.63
2019-02-15T19:09:12.135Z,6.20
2019-02-15T19:11:43.813Z,6.17
2019-02-15T19:14:15.418Z,5.80
2019-02-15T19:16:46.744Z,5.53
2019-02-15T19:19:28.657Z,6.00
2019-02-15T19:21:53.354Z,5.80
2019-02-15T19:24:25.239Z,5.67
2019-02-15T19:26:58.559Z,5.63
2019-02-15T19:29:30.047Z,5.70
2019-02-15T19:32:02.365Z,6.03
2019-02-15T19:34:33.865Z,5.73
2019-02-15T19:37:06.539Z,6.07
2019-02-15T19:39:38.468Z,5.70
2019-02-15T19:42:14.855Z,6.10
2019-02-15T19:44:46.541Z,6.33
2019-02-15T19:47:18.451Z,6.33
2019-02-15T19:49:51.491Z,6.13
2019-02-15T19:52:23.084Z,6.23
2019-02-15T19:54:55.214Z,6.47
2019-02-15T19:57:27.190Z,6.27
2019-02-15T19:59:59.184Z,6.67
2019-02-15T20:02:30.694Z,6.40
2019-02-15T20:05:02.250Z,7.00
2019-02-15T20:07:33.817Z,7.43
2019-02-15T20:10:07.013Z,6.73
2019-02-15T20:12:38.451Z,6.50
2019-02-15T20:15:11.487Z,8.30
2019-02-15T20:17:43.439Z,10.80
2019-02-15T20:20:14.939Z,13.57
2019-02-15T20:22:48.877Z,20.83
2019-02-15T20:25:20.720Z,18.27
2019-02-15T20:27:53.321Z,22.17
2019-02-15T20:30:26.747Z,20.37
2019-02-15T20:32:58.345Z,30.03
2019-02-15T20:35:29.921Z,22.27
2019-02-15T20:38:03.062Z,22.97
2019-02-15T20:40:35.250Z,18.30
2019-02-15T20:43:06.924Z,27.40
2019-02-15T20:45:38.418Z,20.20
2019-02-15T20:48:12.453Z,23.17
2019-02-15T20:50:43.266Z,20.27
2019-02-15T20:53:15.316Z,24.90
2019-02-15T20:55:46.947Z,29.10
2019-02-15T20:58:18.700Z,27.97
2019-02-15T21:00:52.081Z,21.87
2019-02-15T21:03:23.640Z,19.17
2019-02-15T21:05:55.229Z,15.33
2019-02-15T21:08:27.171Z,12.33
2019-02-15T21:10:58.912Z,11.87
2019-02-15T21:13:30.396Z,15.30
2019-02-15T21:16:02.232Z,14.47
2019-02-15T21:18:34.152Z,13.90
2019-02-15T21:21:05.557Z,13.03
2019-02-15T21:23:37.024Z,12.93
2019-02-15T21:26:13.970Z,13.07
2019-02-15T21:28:47.196Z,10.03
2019-02-15T21:31:19.000Z,11.23
2019-02-15T21:33:50.430Z,10.40
2019-02-15T21:36:22.156Z,9.90
2019-02-15T21:38:53.574Z,10.33
2019-02-15T21:41:25.367Z,10.50
2019-02-15T21:43:58.664Z,10.60
2019-02-15T21:46:30.373Z,10.50
2019-02-15T21:49:02.128Z,10.03
2019-02-15T21:51:33.519Z,11.30
2019-02-15T21:54:06.221Z,10.37
2019-02-15T21:56:37.896Z,9.97
2019-02-15T21:59:09.405Z,10.30
2019-02-15T22:01:41.486Z,10.73
2019-02-15T22:04:14.909Z,10.57
2019-02-15T22:06:46.928Z,10.80
2019-02-15T22:09:18.709Z,10.83
2019-02-15T22:11:50.521Z,10.63
2019-02-15T22:14:21.831Z,10.90
2019-02-15T22:16:55.207Z,10.57
2019-02-15T22:19:26.857Z,10.70
2019-02-15T22:21:58.497Z,11.00
2019-02-15T22:24:30.511Z,11.33
2019-02-15T22:27:03.843Z,10.57
2019-02-15T22:29:35.644Z,10.47
2019-02-15T22:32:07.385Z,10.80
2019-02-15T22:34:39.248Z,11.07
2019-02-15T22:37:10.842Z,11.40
2019-02-15T22:39:42.279Z,11.20
2019-02-15T22:42:14.151Z,11.00
2019-02-15T22:44:45.799Z,10.80
2019-02-15T22:47:17.297Z,11.00
2019-02-15T22:49:48.915Z,11.60
2019-02-15T22:52:20.475Z,10.73
2019-02-15T22:54:51.979Z,12.07
2019-02-15T22:57:23.805Z,11.07
2019-02-15T22:59:55.407Z,11.13
2019-02-15T23:02:28.845Z,11.00
2019-02-15T23:05:00.722Z,11.17
2019-02-15T23:07:32.174Z,11.47
2019-02-15T23:10:05.244Z,11.50
2019-02-15T23:12:37.009Z,10.93
2019-02-15T23:15:09.092Z,10.97
2019-02-15T23:17:40.580Z,12.10
2019-02-15T23:20:12.236Z,12.27
2019-02-15T23:22:43.775Z,11.47
2019-02-15T23:25:15.283Z,11.27
2019-02-15T23:27:47.090Z,12.07
2019-02-15T23:30:19.038Z,11.80
2019-02-15T23:32:51.508Z,11.40
2019-02-15T23:35:23.113Z,12.07
2019-02-15T23:37:54.541Z,12.10
2019-02-15T23:40:26.018Z,12.20
2019-02-15T23:42:57.585Z,12.90
2019-02-15T23:45:29.036Z,11.93
2019-02-15T23:48:00.536Z,12.57
2019-02-15T23:50:32.821Z,11.77
2019-02-15T23:53:04.310Z,11.47
2019-02-15T23:55:36.165Z,12.33
2019-02-15T23:58:08.278Z,11.60
